BEL75Y LGKO-EBBR
Flight info
| Callsign | BEL75Y |
|---|---|
| Flight time | N/A |
| Altitude | 36000 |
| Route | LARKI UL609 MES DCT DISOR DCT LONTA UL608 DOLEV DCT YUYUH DCT KOMAR DCT KUSIB DCT GORPA DCT DOL DCT NIPEL DCT ERKIR DCT BABEG DCT IDOVI Z104 GESLO N852 LNO |
| Aircraft | A20N/M-DE3FGHIJ1LORVWY/HB1G1 |
Departure
| Time | 2026-05-06 17:04 |
|---|---|
| Airport | Kos International Airport "Ippokratis" (LGKO) |
Arrival
| Time | N/A |
|---|---|
| Airport | Brussels Airport (EBBR) |
| Time | Latitude | Longitude | Altitude | Speed | Heading |
|---|---|---|---|---|---|
| 2026-05-06 16:51 | 36.80013 | 27.09024 | 418 ft | 0 kts | 88° |
| 2026-05-06 16:56 | 36.80012 | 27.09018 | 418 ft | 2 kts | 88° |
| 2026-05-06 16:56 | 36.80012 | 27.08999 | 418 ft | 2 kts | 88° |
| 2026-05-06 16:57 | 36.80011 | 27.08974 | 417 ft | 2 kts | 88° |
| 2026-05-06 16:57 | 36.80011 | 27.08955 | 416 ft | 2 kts | 88° |
| 2026-05-06 16:57 | 36.80011 | 27.08943 | 416 ft | 2 kts | 90° |
| 2026-05-06 16:57 | 36.80017 | 27.08919 | 416 ft | 2 kts | 128° |
| 2026-05-06 16:58 | 36.80024 | 27.08911 | 416 ft | 1 kts | 143° |
| 2026-05-06 16:58 | 36.80029 | 27.08907 | 416 ft | 1 kts | 150° |
| 2026-05-06 16:58 | 36.80031 | 27.08905 | 416 ft | 0 kts | 148° |
| 2026-05-06 16:59 | 36.80012 | 27.08920 | 416 ft | 5 kts | 147° |
| 2026-05-06 17:00 | 36.79971 | 27.08952 | 416 ft | 7 kts | 147° |
| 2026-05-06 17:00 | 36.79917 | 27.08980 | 415 ft | 8 kts | 177° |
| 2026-05-06 17:00 | 36.79818 | 27.08982 | 412 ft | 12 kts | 178° |
| 2026-05-06 17:00 | 36.79756 | 27.08983 | 412 ft | 13 kts | 178° |
| 2026-05-06 17:01 | 36.79656 | 27.08989 | 410 ft | 15 kts | 176° |
| 2026-05-06 17:01 | 36.79549 | 27.09042 | 408 ft | 17 kts | 147° |
| 2026-05-06 17:01 | 36.79425 | 27.09138 | 404 ft | 25 kts | 148° |
| 2026-05-06 17:01 | 36.79245 | 27.09278 | 398 ft | 34 kts | 147° |
| 2026-05-06 17:02 | 36.79035 | 27.09441 | 390 ft | 35 kts | 148° |
| 2026-05-06 17:02 | 36.78827 | 27.09603 | 383 ft | 35 kts | 148° |
| 2026-05-06 17:02 | 36.78641 | 27.09748 | 377 ft | 20 kts | 148° |
| 2026-05-06 17:02 | 36.78557 | 27.09770 | 375 ft | 10 kts | 147° |
| 2026-05-06 17:03 | 36.78575 | 27.09797 | 375 ft | 7 kts | 335° |
| 2026-05-06 17:03 | 36.78610 | 27.09771 | 376 ft | 6 kts | 327° |
| 2026-05-06 17:03 | 36.78848 | 27.09587 | 384 ft | 74 kts | 327° |
| 2026-05-06 17:03 | 36.79466 | 27.09107 | 405 ft | 132 kts | 328° |
| 2026-05-06 17:04 | 36.80380 | 27.08404 | 561 ft | 165 kts | 327° |
| 2026-05-06 17:04 | 36.81349 | 27.07647 | 1157 ft | 165 kts | 323° |
| 2026-05-06 17:04 | 36.82023 | 27.06522 | 1677 ft | 176 kts | 282° |
| 2026-05-06 17:04 | 36.81864 | 27.04893 | 1969 ft | 207 kts | 257° |
| 2026-05-06 17:05 | 36.81607 | 27.02994 | 1866 ft | 233 kts | 278° |
| 2026-05-06 17:05 | 36.82201 | 27.01058 | 2016 ft | 251 kts | 309° |
| 2026-05-06 17:05 | 36.83578 | 26.99750 | 2797 ft | 255 kts | 340° |
| 2026-05-06 17:05 | 36.85278 | 26.99231 | 3845 ft | 251 kts | 348° |
| 2026-05-06 17:06 | 36.86978 | 26.98755 | 4705 ft | 255 kts | 347° |
| 2026-05-06 17:06 | 36.88710 | 26.98260 | 5572 ft | 258 kts | 348° |
| 2026-05-06 17:06 | 36.90466 | 26.97763 | 6433 ft | 261 kts | 348° |
| 2026-05-06 17:06 | 36.92231 | 26.97268 | 7265 ft | 264 kts | 348° |
| 2026-05-06 17:07 | 36.94037 | 26.96763 | 8097 ft | 267 kts | 348° |
| 2026-05-06 17:07 | 36.95834 | 26.96260 | 8921 ft | 269 kts | 348° |
| 2026-05-06 17:07 | 36.97693 | 26.95741 | 9744 ft | 272 kts | 348° |
| 2026-05-06 17:07 | 36.99529 | 26.95229 | 10490 ft | 276 kts | 347° |
| 2026-05-06 17:08 | 37.01467 | 26.94688 | 10942 ft | 291 kts | 347° |
| 2026-05-06 17:08 | 37.03485 | 26.94125 | 11286 ft | 309 kts | 347° |
| 2026-05-06 17:08 | 37.05639 | 26.93523 | 11711 ft | 323 kts | 347° |
| 2026-05-06 17:08 | 37.07853 | 26.92905 | 12408 ft | 327 kts | 347° |
| 2026-05-06 17:09 | 37.10083 | 26.92281 | 13158 ft | 329 kts | 347° |
| 2026-05-06 17:09 | 37.12342 | 26.91651 | 13876 ft | 332 kts | 347° |
| 2026-05-06 17:09 | 37.14594 | 26.91023 | 14566 ft | 336 kts | 347° |
| 2026-05-06 17:09 | 37.16896 | 26.90379 | 15261 ft | 338 kts | 346° |
| 2026-05-06 17:10 | 37.19964 | 26.89519 | 16182 ft | 341 kts | 346° |
| 2026-05-06 17:10 | 37.21532 | 26.89077 | 16631 ft | 343 kts | 346° |
| 2026-05-06 17:10 | 37.23869 | 26.88419 | 17271 ft | 346 kts | 346° |
| 2026-05-06 17:10 | 37.26221 | 26.87754 | 17897 ft | 349 kts | 346° |
| 2026-05-06 17:11 | 37.29360 | 26.86866 | 18719 ft | 351 kts | 346° |
| 2026-05-06 17:11 | 37.30956 | 26.86414 | 19148 ft | 352 kts | 346° |
| 2026-05-06 17:11 | 37.33354 | 26.85738 | 19762 ft | 354 kts | 346° |
| 2026-05-06 17:11 | 37.36576 | 26.84825 | 20541 ft | 357 kts | 345° |
| 2026-05-06 17:12 | 37.38177 | 26.84223 | 20918 ft | 358 kts | 339° |
| 2026-05-06 17:12 | 37.40428 | 26.82903 | 21494 ft | 359 kts | 330° |
| 2026-05-06 17:12 | 37.42481 | 26.81125 | 22053 ft | 361 kts | 322° |
| 2026-05-06 17:12 | 37.44389 | 26.79116 | 22582 ft | 363 kts | 321° |
| 2026-05-06 17:13 | 37.46321 | 26.77031 | 23087 ft | 366 kts | 320° |
| 2026-05-06 17:13 | 37.48257 | 26.74934 | 23609 ft | 368 kts | 320° |
| 2026-05-06 17:13 | 37.50214 | 26.72816 | 24121 ft | 370 kts | 320° |
| 2026-05-06 17:13 | 37.52159 | 26.70708 | 24598 ft | 372 kts | 320° |
| 2026-05-06 17:14 | 37.54112 | 26.68593 | 25060 ft | 374 kts | 320° |
| 2026-05-06 17:14 | 37.56097 | 26.66439 | 25522 ft | 376 kts | 320° |
| 2026-05-06 17:14 | 37.58087 | 26.64280 | 25973 ft | 378 kts | 320° |
| 2026-05-06 17:14 | 37.60065 | 26.62129 | 26403 ft | 379 kts | 320° |
| 2026-05-06 17:15 | 37.62085 | 26.59931 | 26807 ft | 382 kts | 320° |
| 2026-05-06 17:15 | 37.64085 | 26.57755 | 27203 ft | 384 kts | 320° |
| 2026-05-06 17:15 | 37.66119 | 26.55539 | 27592 ft | 386 kts | 320° |
| 2026-05-06 17:15 | 37.68856 | 26.52563 | 27806 ft | 395 kts | 320° |
| 2026-05-06 17:16 | 37.70260 | 26.51045 | 27937 ft | 398 kts | 320° |
| 2026-05-06 17:16 | 37.72352 | 26.48781 | 28224 ft | 401 kts | 320° |
| 2026-05-06 17:16 | 37.74490 | 26.46464 | 28629 ft | 401 kts | 320° |
| 2026-05-06 17:16 | 37.76577 | 26.44193 | 29118 ft | 399 kts | 320° |
| 2026-05-06 17:17 | 37.78674 | 26.41906 | 29621 ft | 396 kts | 320° |
| 2026-05-06 17:17 | 37.80743 | 26.39644 | 30071 ft | 395 kts | 320° |
| 2026-05-06 17:17 | 37.82832 | 26.37360 | 30473 ft | 394 kts | 319° |
| 2026-05-06 17:17 | 37.85597 | 26.34337 | 31008 ft | 393 kts | 319° |
| 2026-05-06 17:18 | 37.86962 | 26.32837 | 31290 ft | 393 kts | 319° |
| 2026-05-06 17:18 | 37.89018 | 26.30581 | 31709 ft | 391 kts | 319° |
| 2026-05-06 17:18 | 37.91057 | 26.28342 | 32117 ft | 390 kts | 319° |
| 2026-05-06 17:18 | 37.93122 | 26.26072 | 32508 ft | 389 kts | 319° |
| 2026-05-06 17:19 | 37.95169 | 26.23821 | 32876 ft | 388 kts | 319° |
| 2026-05-06 17:19 | 37.97192 | 26.21594 | 33223 ft | 387 kts | 319° |
| 2026-05-06 17:19 | 37.99226 | 26.19351 | 33558 ft | 386 kts | 319° |
| 2026-05-06 17:19 | 38.01899 | 26.16403 | 33987 ft | 385 kts | 319° |
| 2026-05-06 17:20 | 38.03246 | 26.14917 | 34188 ft | 385 kts | 319° |
| 2026-05-06 17:20 | 38.05281 | 26.12671 | 34480 ft | 384 kts | 319° |
| 2026-05-06 17:20 | 38.07290 | 26.10454 | 34734 ft | 383 kts | 319° |
| 2026-05-06 17:20 | 38.09289 | 26.08252 | 34959 ft | 383 kts | 319° |
| 2026-05-06 17:21 | 38.11299 | 26.06037 | 35163 ft | 383 kts | 319° |
| 2026-05-06 17:21 | 38.13318 | 26.03818 | 35381 ft | 383 kts | 319° |
| 2026-05-06 17:21 | 38.15329 | 26.01600 | 35597 ft | 383 kts | 319° |
| 2026-05-06 17:21 | 38.17998 | 25.98642 | 35867 ft | 383 kts | 319° |
| 2026-05-06 17:22 | 38.19340 | 25.97151 | 36000 ft | 383 kts | 319° |
| 2026-05-06 17:22 | 38.21339 | 25.94929 | 36191 ft | 383 kts | 318° |
| 2026-05-06 17:22 | 38.23343 | 25.92703 | 36367 ft | 384 kts | 319° |
| 2026-05-06 17:22 | 38.25366 | 25.90506 | 36579 ft | 384 kts | 321° |
| 2026-05-06 17:23 | 38.27487 | 25.88384 | 36799 ft | 384 kts | 321° |
| 2026-05-06 17:23 | 38.29583 | 25.86313 | 37024 ft | 384 kts | 321° |
| 2026-05-06 17:23 | 38.31683 | 25.84236 | 37212 ft | 384 kts | 321° |
| 2026-05-06 17:23 | 38.34502 | 25.81438 | 37476 ft | 384 kts | 321° |
| 2026-05-06 17:24 | 38.35902 | 25.80046 | 37606 ft | 384 kts | 321° |
| 2026-05-06 17:24 | 38.38004 | 25.77954 | 37788 ft | 384 kts | 321° |
| 2026-05-06 17:24 | 38.40085 | 25.75882 | 37948 ft | 384 kts | 321° |
| 2026-05-06 17:25 | 38.44319 | 25.71655 | 38036 ft | 386 kts | 321° |
| 2026-05-06 17:25 | 38.48524 | 25.67452 | 38040 ft | 386 kts | 321° |
| 2026-05-06 17:26 | 38.52742 | 25.63227 | 38041 ft | 386 kts | 321° |
| 2026-05-06 17:26 | 38.56973 | 25.58982 | 38040 ft | 386 kts | 321° |
| 2026-05-06 17:27 | 38.61894 | 25.54038 | 38038 ft | 387 kts | 321° |
| 2026-05-06 17:27 | 38.65414 | 25.50494 | 38036 ft | 386 kts | 321° |
| 2026-05-06 17:28 | 38.69627 | 25.46248 | 38035 ft | 387 kts | 321° |
| 2026-05-06 17:28 | 38.73864 | 25.41970 | 38034 ft | 387 kts | 321° |
| 2026-05-06 17:29 | 38.78784 | 25.36994 | 38034 ft | 387 kts | 321° |
| 2026-05-06 17:29 | 38.82311 | 25.33419 | 38036 ft | 387 kts | 321° |
| 2026-05-06 17:30 | 38.86565 | 25.29075 | 38029 ft | 387 kts | 321° |
| 2026-05-06 17:30 | 38.90761 | 25.24802 | 38029 ft | 388 kts | 321° |
| 2026-05-06 17:31 | 38.94992 | 25.20491 | 38029 ft | 388 kts | 321° |
| 2026-05-06 17:31 | 38.99254 | 25.16143 | 38026 ft | 388 kts | 321° |
| 2026-05-06 17:32 | 39.04148 | 25.11148 | 38028 ft | 388 kts | 321° |
| 2026-05-06 17:32 | 39.07680 | 25.07539 | 38028 ft | 388 kts | 321° |
| 2026-05-06 17:33 | 39.11917 | 25.03208 | 38025 ft | 389 kts | 321° |
| 2026-05-06 17:33 | 39.16106 | 24.98940 | 38023 ft | 389 kts | 321° |
| 2026-05-06 17:34 | 39.20260 | 24.94687 | 38022 ft | 388 kts | 321° |
| 2026-05-06 17:34 | 39.24921 | 24.89900 | 38021 ft | 388 kts | 321° |
| 2026-05-06 17:35 | 39.28467 | 24.86250 | 38022 ft | 389 kts | 321° |